createdAt,value
2023-02-16T00:00:43.110Z,98.97
2023-02-16T00:01:49.781Z,99.07
2023-02-16T00:04:05.539Z,99.07
2023-02-16T00:06:44.433Z,99.07
2023-02-16T00:10:57.195Z,99.28
2023-02-16T00:11:55.422Z,99.43
2023-02-16T00:14:36.260Z,99.54
2023-02-16T00:17:45.960Z,99.64
2023-02-16T00:21:51.759Z,99.74
2023-02-16T00:24:34.694Z,99.85
2023-02-16T00:27:29.744Z,99.80
2023-02-16T00:28:35.376Z,99.74
2023-02-16T00:29:27.841Z,99.70
2023-02-16T00:30:36.393Z,99.64
2023-02-16T00:33:40.201Z,99.99
2023-02-16T00:36:03.901Z,99.99
2023-02-16T00:39:30.348Z,99.99
2023-02-16T00:40:28.363Z,99.99
2023-02-16T00:41:37.449Z,99.99
2023-02-16T00:42:28.342Z,99.99
2023-02-16T00:45:24.198Z,99.99
2023-02-16T00:48:20.146Z,99.99
2023-02-16T00:51:25.710Z,99.99
2023-02-16T00:53:39.522Z,99.96
2023-02-16T00:54:46.076Z,99.90
2023-02-16T00:57:03.967Z,99.79
2023-02-16T01:01:11.684Z,99.90
2023-02-16T01:02:09.782Z,99.99
2023-02-16T01:03:19.115Z,99.99
2023-02-16T01:04:09.613Z,99.99
2023-02-16T01:07:22.440Z,99.99
2023-02-16T01:10:03.383Z,99.99
2023-02-16T01:12:42.557Z,99.99
2023-02-16T01:16:25.766Z,99.99
2023-02-16T01:18:49.291Z,99.99
2023-02-16T01:19:54.906Z,99.99
2023-02-16T01:20:54.843Z,99.99
2023-02-16T01:27:47.280Z,99.99
2023-02-16T01:28:53.923Z,99.99
2023-02-16T01:31:42.418Z,99.99
2023-02-16T01:34:52.698Z,99.99
2023-02-16T01:35:58.448Z,99.99
2023-02-16T01:38:18.506Z,99.99
2023-02-16T01:41:09.285Z,99.99
2023-02-16T01:43:35.944Z,99.99
2023-02-16T01:46:46.463Z,99.99
2023-02-16T01:47:53.264Z,99.99
2023-02-16T01:50:10.070Z,99.99
2023-02-16T01:53:21.541Z,99.99
2023-02-16T01:57:12.578Z,99.99
2023-02-16T02:00:19.824Z,99.95
2023-02-16T02:01:19.864Z,99.84
2023-02-16T02:02:19.905Z,99.95
2023-02-16T02:03:19.798Z,99.84
2023-02-16T02:04:19.816Z,99.84
2023-02-16T02:05:19.760Z,99.73
2023-02-16T02:06:19.764Z,99.84
2023-02-16T02:07:19.754Z,99.84
2023-02-16T02:08:19.747Z,99.84
2023-02-16T02:09:19.745Z,99.84
2023-02-16T02:10:19.734Z,99.84
2023-02-16T02:11:19.717Z,99.84
2023-02-16T02:12:19.690Z,99.84
2023-02-16T02:13:22.704Z,99.84
2023-02-16T02:14:19.706Z,99.84
2023-02-16T02:15:19.675Z,99.73
2023-02-16T02:16:19.757Z,99.73
2023-02-16T02:17:19.704Z,99.73
2023-02-16T02:18:19.625Z,99.73
2023-02-16T02:19:19.614Z,99.52
2023-02-16T02:20:19.604Z,99.41
2023-02-16T02:21:19.644Z,99.41
2023-02-16T02:22:19.663Z,99.31
2023-02-16T02:23:19.622Z,99.31
2023-02-16T02:24:19.591Z,99.21
2023-02-16T02:25:19.584Z,99.21
2023-02-16T02:26:19.578Z,99.31
2023-02-16T02:27:19.564Z,99.31
2023-02-16T02:28:22.518Z,99.31
2023-02-16T02:29:19.536Z,99.31
2023-02-16T02:30:19.606Z,99.41
2023-02-16T02:31:19.610Z,99.41
2023-02-16T02:32:19.602Z,99.31
2023-02-16T02:33:19.536Z,99.41
2023-02-16T02:34:19.468Z,99.41
2023-02-16T02:35:19.492Z,99.52
2023-02-16T02:36:19.465Z,99.41
2023-02-16T02:37:19.434Z,99.41
2023-02-16T02:38:19.424Z,99.41
2023-02-16T02:39:19.437Z,99.25
2023-02-16T02:40:19.395Z,99.36
2023-02-16T02:41:19.417Z,99.36
2023-02-16T02:42:19.408Z,99.36
2023-02-16T02:43:22.414Z,99.36
2023-02-16T02:44:19.409Z,99.36
2023-02-16T02:45:19.376Z,99.46
2023-02-16T02:46:19.359Z,99.57
2023-02-16T02:47:19.356Z,99.57
2023-02-16T02:48:19.327Z,99.57
2023-02-16T02:49:19.347Z,99.57
2023-02-16T02:50:19.330Z,99.57
2023-02-16T02:51:19.301Z,99.67
2023-02-16T02:52:19.289Z,99.67
2023-02-16T02:53:19.310Z,99.67
2023-02-16T02:54:19.287Z,99.57
2023-02-16T02:55:19.277Z,99.57
2023-02-16T02:56:19.274Z,99.46
2023-02-16T02:57:19.277Z,99.57
2023-02-16T02:58:22.254Z,99.57
2023-02-16T02:59:19.290Z,99.57
2023-02-16T03:00:19.258Z,99.67
2023-02-16T03:01:19.276Z,99.57
2023-02-16T03:02:19.335Z,99.57
2023-02-16T03:03:19.201Z,99.46
2023-02-16T03:04:19.203Z,99.36
2023-02-16T03:05:19.160Z,99.40
2023-02-16T03:06:19.181Z,99.25
2023-02-16T03:07:19.144Z,99.25
2023-02-16T03:08:19.124Z,99.36
2023-02-16T03:09:19.141Z,99.36
2023-02-16T03:10:19.148Z,99.46
2023-02-16T03:11:19.276Z,99.51
2023-02-16T03:12:19.090Z,99.57
2023-02-16T03:13:22.072Z,99.57
2023-02-16T03:14:19.112Z,99.57
2023-02-16T03:15:19.093Z,99.46
2023-02-16T03:16:19.248Z,99.46
2023-02-16T03:17:19.133Z,99.46
2023-02-16T03:18:19.032Z,99.36
2023-02-16T03:19:19.051Z,99.30
2023-02-16T03:20:19.245Z,99.19
2023-02-16T03:21:19.033Z,99.19
2023-02-16T03:22:19.060Z,99.19
2023-02-16T03:23:19.031Z,99.19
2023-02-16T03:24:18.962Z,99.19
2023-02-16T03:25:18.985Z,99.08
2023-02-16T03:26:18.969Z,99.08
2023-02-16T03:27:18.943Z,98.98
2023-02-16T03:28:21.960Z,98.98
2023-02-16T03:29:19.000Z,98.88
2023-02-16T03:30:19.034Z,98.88
2023-02-16T03:31:19.025Z,98.88
2023-02-16T03:32:18.909Z,98.88
2023-02-16T03:33:18.920Z,98.88
2023-02-16T03:34:18.890Z,98.77
2023-02-16T03:35:18.877Z,98.88
2023-02-16T03:36:18.875Z,98.88
2023-02-16T03:37:18.860Z,99.08
2023-02-16T03:38:18.827Z,99.30
2023-02-16T03:39:18.813Z,99.40
2023-02-16T03:40:18.825Z,99.51
2023-02-16T03:41:18.791Z,99.61
2023-02-16T03:42:18.851Z,99.61
2023-02-16T03:43:21.781Z,99.61
2023-02-16T03:44:18.809Z,99.61
2023-02-16T03:45:18.772Z,99.61
2023-02-16T03:46:18.811Z,99.61
2023-02-16T03:47:18.765Z,99.61
2023-02-16T03:48:18.776Z,99.61
2023-02-16T03:49:18.739Z,99.61
2023-02-16T03:50:18.737Z,99.61
2023-02-16T03:51:18.718Z,99.51
2023-02-16T03:52:18.686Z,99.51
2023-02-16T03:53:18.702Z,99.51
2023-02-16T03:54:18.695Z,99.51
2023-02-16T03:55:18.654Z,99.51
2023-02-16T03:56:18.694Z,99.51
2023-02-16T03:57:18.670Z,99.51
2023-02-16T03:58:21.642Z,99.40
2023-02-16T03:59:18.661Z,99.30
2023-02-16T04:00:18.641Z,99.19
2023-02-16T04:01:18.633Z,99.08
2023-02-16T04:02:18.619Z,99.08
2023-02-16T04:03:18.576Z,98.88
2023-02-16T04:04:18.650Z,98.88
2023-02-16T04:05:18.572Z,98.98
2023-02-16T04:06:18.555Z,98.98
2023-02-16T04:07:18.544Z,99.13
2023-02-16T04:08:18.532Z,99.19
2023-02-16T04:09:18.617Z,99.24
2023-02-16T04:10:18.544Z,99.19
2023-02-16T04:11:18.520Z,99.19
2023-02-16T04:12:18.518Z,99.19
2023-02-16T04:13:21.508Z,98.98
2023-02-16T04:14:18.517Z,98.88
2023-02-16T04:15:18.488Z,98.98
2023-02-16T04:16:18.507Z,99.02
2023-02-16T04:17:18.507Z,99.08
2023-02-16T04:18:18.429Z,99.08
2023-02-16T04:19:18.417Z,99.08
2023-02-16T04:20:18.460Z,98.92
2023-02-16T04:21:18.425Z,98.92
2023-02-16T04:22:18.388Z,99.02
2023-02-16T04:23:18.497Z,99.02
2023-02-16T04:24:18.400Z,98.92
2023-02-16T04:25:18.406Z,98.82
2023-02-16T04:26:18.359Z,98.82
2023-02-16T04:27:18.366Z,98.82
2023-02-16T04:28:21.356Z,98.82
2023-02-16T04:29:18.339Z,98.71
2023-02-16T04:30:18.337Z,98.82
2023-02-16T04:31:18.445Z,98.82
2023-02-16T04:32:18.316Z,98.92
2023-02-16T04:33:18.307Z,98.92
2023-02-16T04:34:18.273Z,98.92
2023-02-16T04:35:18.272Z,99.24
2023-02-16T04:36:18.276Z,99.44
2023-02-16T04:37:18.249Z,99.55
2023-02-16T04:38:18.276Z,99.44
2023-02-16T04:39:18.216Z,99.44
2023-02-16T04:40:18.284Z,99.34
2023-02-16T04:41:18.199Z,99.34
2023-02-16T04:42:18.241Z,99.24
2023-02-16T04:43:21.212Z,99.24
2023-02-16T04:44:18.219Z,99.13
2023-02-16T04:45:18.166Z,99.13
2023-02-16T04:46:18.236Z,99.24
2023-02-16T04:47:18.174Z,99.13
2023-02-16T04:48:18.126Z,99.13
2023-02-16T04:49:18.145Z,99.02
2023-02-16T04:50:18.144Z,98.82
2023-02-16T04:51:18.122Z,98.82
2023-02-16T04:52:18.116Z,98.82
2023-02-16T04:53:18.097Z,98.82
2023-02-16T04:54:18.073Z,98.92
2023-02-16T04:55:18.117Z,98.82
2023-02-16T04:56:18.082Z,98.92
2023-02-16T04:57:18.039Z,99.02
2023-02-16T04:58:21.029Z,99.02
2023-02-16T04:59:18.036Z,99.18
2023-02-16T05:00:18.042Z,99.28
2023-02-16T05:01:18.118Z,99.28
2023-02-16T05:02:18.031Z,99.60
2023-02-16T05:03:18.003Z,99.99
2023-02-16T05:04:17.998Z,99.99
2023-02-16T05:05:17.973Z,99.99
2023-02-16T05:06:17.987Z,99.99
2023-02-16T05:07:17.951Z,99.99
2023-02-16T05:08:20.775Z,99.98
2023-02-16T05:09:17.925Z,99.87
2023-02-16T05:10:17.947Z,99.87
2023-02-16T05:11:17.901Z,99.76
2023-02-16T05:12:17.887Z,99.66
2023-02-16T05:13:20.876Z,99.60
2023-02-16T05:14:17.910Z,99.60
2023-02-16T05:15:17.895Z,99.39
2023-02-16T05:16:17.905Z,99.28
2023-02-16T05:17:17.900Z,99.28
2023-02-16T05:18:17.836Z,99.39
2023-02-16T05:19:17.847Z,99.39
2023-02-16T05:20:17.843Z,99.49
2023-02-16T05:21:17.839Z,99.49
2023-02-16T05:22:17.811Z,99.60
2023-02-16T05:23:17.828Z,99.60
2023-02-16T05:24:17.798Z,99.70
2023-02-16T05:25:17.788Z,99.81
2023-02-16T05:26:17.767Z,99.81
2023-02-16T05:27:17.741Z,99.70
2023-02-16T05:28:20.791Z,99.70
2023-02-16T05:29:17.776Z,99.60
2023-02-16T05:30:17.790Z,99.49
2023-02-16T05:31:17.782Z,99.70
2023-02-16T05:32:17.806Z,99.70
2023-02-16T05:33:17.676Z,99.70
2023-02-16T05:34:17.722Z,99.60
2023-02-16T05:35:17.885Z,99.49
2023-02-16T05:36:17.689Z,99.49
2023-02-16T05:37:17.685Z,99.60
2023-02-16T05:38:17.646Z,99.81
2023-02-16T05:39:17.652Z,99.70
2023-02-16T05:40:17.610Z,99.81
2023-02-16T05:41:17.606Z,99.99
2023-02-16T05:42:17.592Z,99.99
2023-02-16T05:43:20.586Z,99.99
2023-02-16T05:44:17.615Z,99.99
2023-02-16T05:45:17.599Z,99.99
2023-02-16T05:46:17.762Z,99.99
2023-02-16T05:47:17.548Z,99.99
2023-02-16T05:48:17.560Z,99.99
2023-02-16T05:49:17.565Z,99.99
2023-02-16T05:50:17.563Z,99.99
2023-02-16T05:51:17.540Z,99.99
2023-02-16T05:52:17.491Z,99.99
2023-02-16T05:53:17.521Z,99.91
2023-02-16T05:54:17.538Z,99.81
2023-02-16T05:55:17.497Z,99.70
2023-02-16T05:56:17.458Z,99.70
2023-02-16T05:57:17.470Z,99.70
2023-02-16T05:58:20.460Z,99.70
2023-02-16T05:59:17.480Z,99.81
2023-02-16T06:00:17.426Z,99.99
2023-02-16T06:01:17.445Z,99.99
2023-02-16T06:02:17.423Z,99.99
2023-02-16T06:03:17.415Z,99.99
2023-02-16T06:04:17.418Z,99.99
2023-02-16T06:05:17.378Z,99.70
2023-02-16T06:06:17.333Z,99.39
2023-02-16T06:07:17.288Z,99.28
2023-02-16T06:08:17.311Z,99.28
2023-02-16T06:09:17.301Z,99.28
2023-02-16T06:10:17.288Z,99.28
2023-02-16T06:11:17.268Z,99.28
2023-02-16T06:12:17.275Z,99.28
2023-02-16T06:13:20.243Z,99.33
2023-02-16T06:14:17.273Z,99.33
2023-02-16T06:15:17.219Z,99.33
2023-02-16T06:16:17.267Z,99.43
2023-02-16T06:17:17.225Z,99.43
2023-02-16T06:18:17.188Z,99.43
2023-02-16T06:19:17.213Z,99.54
2023-02-16T06:20:17.187Z,99.75
2023-02-16T06:21:17.182Z,99.75
2023-02-16T06:22:17.160Z,99.85
2023-02-16T06:23:17.173Z,99.85
2023-02-16T06:24:17.151Z,99.96
2023-02-16T06:25:17.146Z,99.96
2023-02-16T06:26:17.108Z,99.99
2023-02-16T06:27:17.103Z,99.99
2023-02-16T06:28:20.109Z,99.96
2023-02-16T06:29:17.153Z,99.96
2023-02-16T06:30:17.130Z,99.75
2023-02-16T06:31:17.146Z,99.75
2023-02-16T06:32:17.149Z,99.70
2023-02-16T06:33:17.060Z,99.70
2023-02-16T06:34:17.050Z,99.81
2023-02-16T06:35:17.050Z,99.81
2023-02-16T06:36:17.052Z,99.81
2023-02-16T06:37:17.025Z,99.81
2023-02-16T06:38:17.007Z,99.91
2023-02-16T06:39:17.001Z,99.81
2023-02-16T06:40:16.983Z,99.81
2023-02-16T06:41:16.993Z,99.81
2023-02-16T06:42:16.965Z,99.81
2023-02-16T06:43:20.015Z,99.70
2023-02-16T06:44:16.975Z,99.70
2023-02-16T06:45:16.945Z,99.70
2023-02-16T06:46:16.956Z,99.70
2023-02-16T06:47:16.962Z,99.60
2023-02-16T06:48:16.929Z,99.49
2023-02-16T06:49:16.885Z,99.49
2023-02-16T06:50:16.906Z,99.49
2023-02-16T06:51:16.883Z,99.60
2023-02-16T06:52:16.883Z,99.60
2023-02-16T06:53:16.871Z,99.60
2023-02-16T06:54:16.835Z,99.66
2023-02-16T06:55:16.855Z,99.70
2023-02-16T06:56:16.805Z,99.66
2023-02-16T06:57:16.794Z,99.66
2023-02-16T06:58:19.848Z,99.76
2023-02-16T06:59:16.831Z,99.76
2023-02-16T07:00:16.772Z,99.55
2023-02-16T07:01:16.838Z,99.60
2023-02-16T07:02:16.763Z,99.66
2023-02-16T07:03:16.796Z,99.66
2023-02-16T07:04:16.723Z,99.76
2023-02-16T07:05:16.744Z,99.87
2023-02-16T07:06:16.713Z,99.98
2023-02-16T07:07:16.710Z,99.98
2023-02-16T07:08:16.690Z,99.99
2023-02-16T07:09:16.731Z,99.99
2023-02-16T07:10:16.665Z,99.99
2023-02-16T07:11:16.686Z,99.99
2023-02-16T07:12:16.662Z,99.99
2023-02-16T07:13:19.632Z,99.99
2023-02-16T07:14:16.664Z,99.99
2023-02-16T07:15:16.653Z,99.99
2023-02-16T07:16:16.668Z,99.99
2023-02-16T07:17:16.604Z,99.82
2023-02-16T07:18:16.626Z,99.82
2023-02-16T07:19:16.644Z,99.72
2023-02-16T07:20:16.594Z,99.61
2023-02-16T07:21:16.584Z,99.51
2023-02-16T07:22:16.580Z,99.61
2023-02-16T07:23:16.578Z,99.61
2023-02-16T07:24:16.524Z,99.82
2023-02-16T07:25:16.551Z,99.93
2023-02-16T07:26:16.546Z,99.93
2023-02-16T07:27:16.501Z,99.99
2023-02-16T07:28:19.515Z,99.99
2023-02-16T07:29:16.530Z,99.99
2023-02-16T07:30:16.667Z,99.78
2023-02-16T07:31:16.592Z,99.78
2023-02-16T07:32:16.458Z,99.99
2023-02-16T07:33:16.476Z,99.99
2023-02-16T07:34:16.456Z,99.99
2023-02-16T07:35:16.453Z,99.99
2023-02-16T07:36:16.416Z,99.99
2023-02-16T07:37:16.423Z,99.99
2023-02-16T07:38:16.414Z,99.99
2023-02-16T07:39:16.385Z,99.99
2023-02-16T07:40:16.558Z,99.99
2023-02-16T07:41:16.691Z,99.99
2023-02-16T07:42:16.764Z,99.99
2023-02-16T07:43:19.649Z,99.99
2023-02-16T07:44:16.636Z,99.99
2023-02-16T07:45:16.321Z,99.99
2023-02-16T07:46:16.370Z,99.99
2023-02-16T07:47:16.332Z,99.99
2023-02-16T07:48:16.320Z,99.99
2023-02-16T07:49:16.288Z,99.99
2023-02-16T07:50:16.294Z,99.99
2023-02-16T07:51:16.274Z,99.99
2023-02-16T07:52:16.259Z,99.99
2023-02-16T07:53:16.276Z,99.99
2023-02-16T07:54:16.290Z,99.99
2023-02-16T07:55:16.245Z,99.99
2023-02-16T07:56:16.214Z,99.99
2023-02-16T07:57:16.195Z,99.99
2023-02-16T07:58:19.187Z,99.99
2023-02-16T07:59:16.221Z,99.99
2023-02-16T08:00:16.172Z,99.86
2023-02-16T08:01:16.158Z,97.83
2023-02-16T08:02:16.346Z,95.44
2023-02-16T08:03:16.298Z,93.27
2023-02-16T08:04:16.127Z,91.56
2023-02-16T08:05:16.275Z,89.75
2023-02-16T08:06:16.141Z,88.60
2023-02-16T08:07:16.098Z,88.60
2023-02-16T08:08:16.130Z,88.49
2023-02-16T08:09:16.105Z,88.81
2023-02-16T08:10:16.106Z,88.91
2023-02-16T08:11:16.090Z,88.70
2023-02-16T08:12:16.074Z,88.45
2023-02-16T08:13:19.071Z,87.83
2023-02-16T08:14:16.047Z,87.16
2023-02-16T08:15:16.165Z,86.89
2023-02-16T08:16:16.084Z,86.79
2023-02-16T08:17:16.026Z,87.66
2023-02-16T08:18:16.029Z,87.76
2023-02-16T08:19:16.011Z,88.95
2023-02-16T08:20:15.991Z,90.00
2023-02-16T08:21:15.992Z,90.72
2023-02-16T08:22:15.981Z,90.93
2023-02-16T08:23:15.948Z,91.46
2023-02-16T08:24:15.972Z,91.66
2023-02-16T08:25:15.972Z,91.52
2023-02-16T08:26:15.958Z,91.52
2023-02-16T08:27:15.912Z,91.37
2023-02-16T08:28:18.926Z,90.60
2023-02-16T08:29:15.984Z,90.14
2023-02-16T08:30:15.944Z,89.48
2023-02-16T08:31:15.946Z,88.71
2023-02-16T08:32:15.937Z,88.15
2023-02-16T08:33:15.845Z,87.17
2023-02-16T08:34:15.863Z,86.34
2023-02-16T08:35:15.826Z,86.19
2023-02-16T08:36:15.844Z,84.53
2023-02-16T08:37:15.862Z,85.64
2023-02-16T08:38:15.805Z,84.77
2023-02-16T08:39:15.812Z,85.50
2023-02-16T08:41:15.786Z,86.49
2023-02-16T08:42:15.785Z,85.91
2023-02-16T08:43:18.768Z,86.02
2023-02-16T08:44:15.906Z,85.60
2023-02-16T08:45:15.757Z,86.64
2023-02-16T08:46:15.793Z,87.16
2023-02-16T08:47:15.740Z,87.01
2023-02-16T08:48:15.900Z,87.12
2023-02-16T08:49:15.709Z,86.91
2023-02-16T08:50:15.689Z,87.01
2023-02-16T08:51:15.714Z,86.15
2023-02-16T08:52:15.694Z,85.27
2023-02-16T08:53:15.724Z,85.24
2023-02-16T08:54:15.684Z,83.64
2023-02-16T08:55:15.712Z,82.15
2023-02-16T08:56:15.653Z,81.02
2023-02-16T08:57:15.602Z,81.64
2023-02-16T08:58:18.612Z,83.95
2023-02-16T08:59:15.600Z,84.33
2023-02-16T09:00:15.600Z,83.81
2023-02-16T09:01:15.652Z,82.32
2023-02-16T09:02:15.627Z,80.88
2023-02-16T09:03:15.529Z,80.53
2023-02-16T09:04:15.561Z,79.05
2023-02-16T09:05:15.542Z,79.25
2023-02-16T09:06:15.539Z,79.01
2023-02-16T09:07:15.505Z,80.35
2023-02-16T09:08:15.489Z,80.76
2023-02-16T09:09:15.472Z,81.01
2023-02-16T09:10:15.501Z,80.39
2023-02-16T09:11:15.494Z,81.63
2023-02-16T09:12:15.502Z,81.84
2023-02-16T09:13:18.449Z,80.39
2023-02-16T09:14:15.477Z,80.56
2023-02-16T09:15:15.402Z,81.07
2023-02-16T09:16:15.482Z,82.00
2023-02-16T09:17:15.410Z,82.10
2023-02-16T09:18:15.404Z,82.28
2023-02-16T09:19:15.407Z,80.97
2023-02-16T09:20:15.351Z,80.73
2023-02-16T09:21:15.354Z,80.21
2023-02-16T09:22:15.373Z,81.35
2023-02-16T09:23:15.376Z,80.38
2023-02-16T09:24:15.334Z,80.18
2023-02-16T09:25:15.336Z,79.04
2023-02-16T09:26:15.354Z,78.63
2023-02-16T09:27:15.283Z,78.49
2023-02-16T09:28:18.278Z,78.08
2023-02-16T09:29:15.299Z,77.87
2023-02-16T09:30:15.510Z,76.73
2023-02-16T09:31:15.328Z,76.42
2023-02-16T09:32:15.257Z,76.84
2023-02-16T09:33:15.223Z,76.53
2023-02-16T09:34:15.240Z,76.12
2023-02-16T09:35:15.230Z,75.18
2023-02-16T09:36:15.195Z,76.12
2023-02-16T09:37:15.226Z,76.12
2023-02-16T09:38:15.243Z,75.67
2023-02-16T09:39:15.154Z,76.59
2023-02-16T09:40:15.175Z,75.87
2023-02-16T09:41:15.169Z,75.05
2023-02-16T09:42:15.165Z,75.56
2023-02-16T09:43:18.145Z,76.25
2023-02-16T09:44:15.170Z,76.46
2023-02-16T09:45:15.122Z,75.84
2023-02-16T09:46:15.149Z,74.19
2023-02-16T09:47:15.118Z,73.98
2023-02-16T09:48:15.294Z,73.50
2023-02-16T09:49:15.105Z,73.71
2023-02-16T09:50:15.147Z,73.19
2023-02-16T09:51:17.176Z,74.08
2023-02-16T09:52:16.271Z,73.47
2023-02-16T09:53:15.432Z,73.26
2023-02-16T09:54:15.047Z,72.51
2023-02-16T09:55:14.995Z,72.30
2023-02-16T09:56:15.034Z,72.20
2023-02-16T09:57:14.979Z,72.30
2023-02-16T09:58:17.962Z,72.58
2023-02-16T09:59:14.981Z,72.16
2023-02-16T10:04:46.039Z,72.58
2023-02-16T10:05:44.422Z,72.16
2023-02-16T10:06:44.103Z,72.88
2023-02-16T10:07:44.154Z,71.96
2023-02-16T10:08:44.139Z,71.03
2023-02-16T10:09:44.061Z,71.51
2023-02-16T10:10:44.057Z,71.92
2023-02-16T10:11:44.044Z,72.03
2023-02-16T10:12:44.046Z,71.89
2023-02-16T10:13:44.050Z,71.17
2023-02-16T10:14:44.023Z,71.07
2023-02-16T10:15:44.061Z,71.37
2023-02-16T10:16:44.020Z,71.04
2023-02-16T10:17:46.964Z,70.94
2023-02-16T10:18:44.002Z,69.70
2023-02-16T10:19:43.974Z,70.32
2023-02-16T10:20:43.985Z,69.60
2023-02-16T10:21:44.003Z,68.67
2023-02-16T10:22:43.953Z,68.95
2023-02-16T10:23:43.948Z,69.15
2023-02-16T10:24:43.925Z,68.33
2023-02-16T10:25:44.070Z,67.82
2023-02-16T10:26:43.898Z,68.95
2023-02-16T10:27:43.892Z,69.15
2023-02-16T10:28:43.910Z,67.99
2023-02-16T10:29:43.902Z,67.58
2023-02-16T10:30:43.943Z,67.89
2023-02-16T10:31:44.076Z,68.61
2023-02-16T10:32:46.810Z,66.96
2023-02-16T10:33:43.878Z,66.83
2023-02-16T10:34:43.805Z,66.83
2023-02-16T10:35:43.808Z,65.47
2023-02-16T10:36:43.866Z,65.88
2023-02-16T10:37:43.763Z,65.88
2023-02-16T10:38:43.818Z,65.23
2023-02-16T10:39:43.748Z,63.59
2023-02-16T10:40:43.781Z,64.20
2023-02-16T10:41:43.796Z,64.10
2023-02-16T10:42:43.727Z,64.31
2023-02-16T10:43:43.720Z,63.69
2023-02-16T10:44:43.703Z,64.31
2023-02-16T10:45:44.390Z,64.10
2023-02-16T10:46:43.709Z,64.41
2023-02-16T10:47:46.903Z,64.51
2023-02-16T10:48:43.690Z,64.59
2023-02-16T10:49:43.654Z,64.17
2023-02-16T10:50:43.726Z,64.07
2023-02-16T10:51:43.653Z,64.89
2023-02-16T10:52:43.631Z,64.56
2023-02-16T10:53:43.641Z,63.02
2023-02-16T10:54:43.591Z,62.40
2023-02-16T10:55:43.624Z,62.10
2023-02-16T10:56:43.569Z,62.51
2023-02-16T10:57:43.591Z,62.71
2023-02-16T10:58:43.572Z,63.02
2023-02-16T10:59:43.537Z,63.02
2023-02-16T11:00:43.525Z,62.92
2023-02-16T11:01:43.581Z,64.32
2023-02-16T11:02:46.548Z,64.01
2023-02-16T11:03:43.548Z,63.50
2023-02-16T11:04:43.526Z,62.68
2023-02-16T11:05:43.559Z,61.76
2023-02-16T11:06:43.539Z,60.71
2023-02-16T11:07:43.488Z,61.04
2023-02-16T11:08:43.497Z,62.14
2023-02-16T11:09:43.596Z,60.42
2023-02-16T11:10:43.449Z,61.52
2023-02-16T11:11:43.450Z,61.11
2023-02-16T11:12:43.438Z,60.50
2023-02-16T11:13:43.429Z,58.73
2023-02-16T11:14:43.418Z,58.73
2023-02-16T11:15:43.446Z,59.96
2023-02-16T11:16:43.407Z,59.83
2023-02-16T11:17:46.377Z,59.42
2023-02-16T11:18:43.385Z,58.61
2023-02-16T11:19:43.372Z,57.48
2023-02-16T11:20:43.378Z,57.45
2023-02-16T11:21:43.339Z,57.66
2023-02-16T11:22:43.341Z,58.78
2023-02-16T11:23:43.288Z,58.98
2023-02-16T11:24:43.280Z,58.37
2023-02-16T11:25:43.320Z,56.33
2023-02-16T11:26:43.302Z,56.74
2023-02-16T11:27:43.266Z,56.43
2023-02-16T11:28:43.284Z,55.92
2023-02-16T11:29:43.259Z,54.57
2023-02-16T11:30:43.349Z,55.69
2023-02-16T11:31:43.274Z,55.08
2023-02-16T11:32:46.227Z,55.79
2023-02-16T11:33:43.238Z,55.36
2023-02-16T11:34:43.206Z,56.58
2023-02-16T11:35:43.171Z,54.33
2023-02-16T11:36:43.160Z,55.94
2023-02-16T11:37:43.168Z,54.82
2023-02-16T11:38:43.140Z,53.29
2023-02-16T11:39:43.160Z,53.31
2023-02-16T11:40:43.141Z,54.00
2023-02-16T11:41:43.124Z,55.13
2023-02-16T11:42:43.095Z,55.33
2023-02-16T11:43:43.122Z,56.56
2023-02-16T11:44:43.095Z,56.43
2023-02-16T11:45:43.059Z,54.08
2023-02-16T11:46:43.070Z,53.36
2023-02-16T11:47:46.201Z,52.86
2023-02-16T11:48:43.060Z,54.59
2023-02-16T11:49:43.042Z,53.98
2023-02-16T11:50:43.800Z,54.36
2023-02-16T11:51:42.998Z,56.20
2023-02-16T11:52:43.013Z,53.72
2023-02-16T11:53:42.975Z,53.22
2023-02-16T11:54:42.994Z,52.20
2023-02-16T11:55:42.951Z,52.83
2023-02-16T11:56:42.945Z,52.83
2023-02-16T11:57:43.049Z,52.73
2023-02-16T11:58:42.952Z,53.85
2023-02-16T11:59:42.930Z,53.03
2023-02-16T12:00:42.894Z,53.62
2023-02-16T12:01:42.915Z,52.09
2023-02-16T12:02:45.903Z,51.79
2023-02-16T12:03:42.977Z,54.03
2023-02-16T12:04:42.865Z,53.90
2023-02-16T12:05:42.879Z,52.27
2023-02-16T12:06:42.852Z,51.79
2023-02-16T12:07:42.843Z,51.38
2023-02-16T12:08:42.855Z,51.79
2023-02-16T12:09:42.835Z,52.40
2023-02-16T12:10:42.831Z,53.52
2023-02-16T12:11:42.806Z,51.66
2023-02-16T12:12:42.770Z,50.95
2023-02-16T12:13:42.826Z,51.46
2023-02-16T12:14:42.816Z,50.84
2023-02-16T12:15:42.760Z,51.35
2023-02-16T12:16:42.820Z,52.17
2023-02-16T12:17:45.705Z,51.23
2023-02-16T12:18:42.736Z,50.31
2023-02-16T12:19:42.730Z,50.31
2023-02-16T12:20:42.697Z,50.29
2023-02-16T12:21:42.681Z,50.09
2023-02-16T12:22:42.656Z,49.60
2023-02-16T12:23:42.664Z,49.80
2023-02-16T12:24:42.674Z,50.52
2023-02-16T12:25:42.660Z,49.37
2023-02-16T12:26:42.627Z,49.88
2023-02-16T12:27:42.622Z,49.98
2023-02-16T12:28:42.635Z,49.04
2023-02-16T12:29:42.679Z,48.74
2023-02-16T12:30:42.596Z,50.06
2023-02-16T12:31:42.606Z,47.82
2023-02-16T12:32:45.613Z,48.33
2023-02-16T12:33:43.684Z,48.64
2023-02-16T12:34:42.595Z,48.13
2023-02-16T12:35:42.551Z,48.13
2023-02-16T12:36:42.551Z,48.35
2023-02-16T12:37:42.527Z,48.35
2023-02-16T12:38:43.481Z,49.98
2023-02-16T12:39:42.493Z,48.96
2023-02-16T12:40:42.519Z,49.45
2023-02-16T12:41:42.469Z,47.92
2023-02-16T12:42:42.554Z,48.61
2023-02-16T12:43:42.453Z,48.92
2023-02-16T12:44:42.424Z,47.47
2023-02-16T12:45:42.515Z,45.44
2023-02-16T12:46:42.444Z,47.78
2023-02-16T12:47:45.482Z,46.94
2023-02-16T12:48:42.426Z,46.13
2023-02-16T12:49:42.401Z,47.05
2023-02-16T12:50:42.390Z,46.92
2023-02-16T12:51:42.556Z,47.33
2023-02-16T12:52:42.414Z,46.51
2023-02-16T12:53:42.369Z,46.62
2023-02-16T12:54:42.369Z,45.20
2023-02-16T12:55:42.319Z,45.52
2023-02-16T12:56:42.350Z,45.42
2023-02-16T12:57:42.309Z,44.71
2023-02-16T12:58:42.305Z,46.33
2023-02-16T12:59:42.263Z,46.03
2023-02-16T13:00:42.253Z,46.44
2023-02-16T13:01:42.248Z,46.01
2023-02-16T13:02:45.298Z,44.89
2023-02-16T13:03:42.364Z,46.11
2023-02-16T13:04:42.271Z,45.70
2023-02-16T13:05:42.224Z,46.19
2023-02-16T13:06:42.219Z,46.49
2023-02-16T13:07:42.183Z,44.77
2023-02-16T13:08:42.173Z,45.58
2023-02-16T13:09:42.191Z,44.97
2023-02-16T13:10:42.179Z,44.67
2023-02-16T13:11:42.231Z,44.38
2023-02-16T13:12:42.164Z,44.91
2023-02-16T13:13:42.281Z,46.23
2023-02-16T13:14:42.160Z,46.31
2023-02-16T13:15:42.158Z,45.90
2023-02-16T13:16:42.199Z,45.60
2023-02-16T13:17:45.087Z,45.98
2023-02-16T13:18:42.120Z,44.67
2023-02-16T13:19:42.199Z,46.19
2023-02-16T13:20:42.087Z,44.85
2023-02-16T13:21:50.958Z,45.15
2023-02-16T13:22:42.062Z,46.47
2023-02-16T13:23:42.032Z,45.86
2023-02-16T13:24:42.163Z,45.03
2023-02-16T13:25:42.178Z,43.73
2023-02-16T13:26:42.105Z,43.12
2023-02-16T13:27:42.036Z,44.24
2023-02-16T13:28:42.153Z,44.95
2023-02-16T13:29:42.281Z,44.65
2023-02-16T13:30:42.250Z,44.24
2023-02-16T13:31:42.100Z,45.25
2023-02-16T13:32:45.147Z,45.05
2023-02-16T13:33:42.002Z,45.37
2023-02-16T13:34:42.024Z,45.37
2023-02-16T13:35:41.936Z,43.85
2023-02-16T13:36:41.909Z,44.36
2023-02-16T13:37:41.903Z,43.65
2023-02-16T13:38:41.886Z,44.36
2023-02-16T13:39:42.060Z,44.56
2023-02-16T13:40:41.889Z,43.23
2023-02-16T13:41:41.880Z,43.02
2023-02-16T13:42:41.873Z,42.61
2023-02-16T13:43:41.876Z,42.72
2023-02-16T13:44:43.915Z,43.02
2023-02-16T13:45:41.981Z,43.12
2023-02-16T13:46:41.803Z,44.24
2023-02-16T13:47:44.783Z,42.41
2023-02-16T13:48:41.798Z,43.02
2023-02-16T13:49:41.807Z,42.72
2023-02-16T13:50:42.220Z,43.91
2023-02-16T13:51:41.755Z,42.60
2023-02-16T13:52:41.773Z,42.41
2023-02-16T13:53:41.790Z,43.14
2023-02-16T13:54:41.739Z,43.75
2023-02-16T13:55:41.764Z,43.35
2023-02-16T13:56:41.733Z,43.35
2023-02-16T13:57:41.896Z,43.35
2023-02-16T13:58:41.675Z,43.55
2023-02-16T13:59:41.673Z,43.04
2023-02-16T14:00:41.667Z,43.84
2023-02-16T14:01:41.685Z,43.53
2023-02-16T14:02:44.609Z,43.02
2023-02-16T14:03:41.628Z,42.61
2023-02-16T14:04:41.666Z,42.54
2023-02-16T14:05:41.622Z,43.24
2023-02-16T14:06:41.610Z,43.47
2023-02-16T14:07:41.588Z,43.16